Aérodrome :
LOGIN :

S'inscrire | Disclaimer

   EN    FR    IT 

 










Légende :    VFR   VFR Marginal   IFR   IFR Intensif   IFR Très Intensif
Visi : 
Plafond : 
>= 8 km
>= 3000ft
5 à 8 km
1000 à 3000 ft
1500m à 5 km
500 à 1000 ft
800 à 1500m
200 à 500 ft
< 800m
< 200 ft
Symboles :   Orages  Brouillard  Fortes neiges  Fortes précipitations  Vent > 20 kt
SIGMETs :   Divers  Orages  Givrage  Turbulence  Onde Orograph.  Cendres Volcan.






- Altitude de l'aérodrome : 47 ft
- Code IATA : BMA


ESSB - Stockholm-Bromma

DERNIER METAR :
  • 290720Z 04003KT 3500 BR BKN002 13/13 Q1016

METARs EXPIRÉS :
  • 290650Z 06004KT 3500 BR BKN002 13/13 Q1016
  • 290620Z 06003KT 4000 BR BKN002 13/13 Q1016
  • 290550Z 04003KT 3000 BR BKN002 13/13 Q1016
  • 290520Z VRB02KT 3000 BR BKN002 13/13 Q1015
  • 290450Z 02003KT 6000 BKN003 13/13 Q1015

TAF TAF ESSB
Valide du 29 à 06h jusqu'au 29 à 15h UTC


290530Z 2906/2915 04004KT 9999 BKN003
PROB40 2906/2909 4000 BR BKN005
BECMG 2909/2911 BKN006
BECMG 2911/2913 BKN015
PROB40 2913/2915 BKN012



MET'MAP, la Météo Aéronautique d'un coup d'oeil ! - Copyright ORBIFLY Décembre 2007 - Disclaimer

ORBIFLY MET'MAP TEAM :

Programmation & Développement : Alexandra Zaïnal
Sur une idée originale de : Baudouin d'Aumeries
Assistance à la programmation : Marc-Olivier Méhu
Soutien technique & logistique : Manuel Goepfert

Contact : metmap@orbifly.com




SOURCES & CREDITS :

   NOAA